Athol, ID (83801)

10:30 AM PST on December 03, 2016 (GMT -0800)
North Idaho Prairie | | Change Station

Elev 2477 ft 47.94 °N, 116.74 °W | Updated 24 seconds ago

Rain
Rain
37.7 °F
Feels Like 32 °F
N
7.7
Wind Variable Wind from SSW
Gusts 14.0 mph

Today
High -- | Low -- °F
--% Chance of Precip.
Yesterday
High -- | Low -- °F
Precip. -- in
Pressure 30.26 in
Visibility 10.0 miles
Clouds Mostly Cloudy 2200 ft
Windchill 32 °F
Dew Point 37 °F
Humidity 94%
Rainfall 0.35 in
Snow Depth Not available.
7:18 AM 3:55 PM
Waxing Crescent, 16% visible
METAR KCOE 031756Z AUTO 18004KT 10SM BKN022 03/01 A3015 RMK AO2 SLP246 T00330011 10033 20017 51017
Pressure 30.26 in
Visibility 10.0 miles
Clouds Mostly Cloudy 2200 ft
Windchill 32 °F
Dew Point 37 °F
Humidity 94%
Rainfall 0.35 in
Snow Depth Not available.
7:18 AM 3:55 PM
Waxing Crescent, 16% visible
METAR KCOE 031756Z AUTO 18004KT 10SM BKN022 03/01 A3015 RMK AO2 SLP246 T00330011 10033 20017 51017

10-Day Weather Forecast

Almanac

Astronomy

Dec. 03, 2016 Rise Set
Actual Time
Civil Twilight
Nautical Twilight
Astronomical Twilight
Moon
Length of Visible Light
Length of Day
Tomorrow will be .
, % of the Moon is Illuminated

Today's Extremes

State Highs State Lows

Community

WunderPhotos

Upload Photos

1,955,457 photos uploaded!

WunderBlog® & News

Nearby

Air Quality

  Air Quality AQ Index Pollutant
Not available.

Snow Depth

Station Depth Elevation

Earthquake Activity

City Distance Mag. Time & Date
Minimum magnitude displayed is 2.5.

Coastal Water Temperatures

Place Temperature

Stations

Nearby Weather Stations

Station Location Temp. Windchill Dew Point Humidity Wind Precip. Elev Updated Type
                   

Watches & Warnings

There are currently no watches in effect.